Time;durP1;ratioP1;P1;durP2;ratioP2;P2;SDS_P1;SDS_P2;PMS_P1;PMS_P2;Temp;Humidity;BMP_temperature;BMP_pressure;BME280_temperature;BME280_humidity;BME280_pressure;Samples;Min_cycle;Max_cycle;Signal;HPM_P1;HPM_P2
2020/12/21 00:02:22;;;;;;;67.65;39.95;;;7.00;88.80;;;;;;5052771;28;20378;-48
2020/12/21 00:04:48;;;;;;;70.60;41.55;;;7.10;88.20;;;;;;5052911;28;20044;-50
2020/12/21 00:07:13;;;;;;;74.80;43.38;;;7.30;87.70;;;;;;4986917;28;20461;-50
2020/12/21 00:09:39;;;;;;;73.03;42.40;;;7.30;86.70;;;;;;5052498;28;20428;-49
2020/12/21 00:12:05;;;;;;;68.03;41.88;;;7.40;86.40;;;;;;5052853;28;20025;-47
2020/12/21 00:14:31;;;;;;;70.50;42.83;;;7.60;86.00;;;;;;5052636;28;20097;-49
2020/12/21 00:16:56;;;;;;;82.53;46.25;;;7.60;85.80;;;;;;5019198;28;20029;-50
2020/12/21 00:19:24;;;;;;;80.10;47.47;;;7.60;85.10;;;;;;5052480;28;20037;-50
2020/12/21 00:21:53;;;;;;;74.55;47.22;;;7.60;85.30;;;;;;5052425;28;20496;-48
2020/12/21 00:24:20;;;;;;;73.15;45.00;;;7.60;85.30;;;;;;5018992;28;20037;-48
2020/12/21 00:26:48;;;;;;;79.53;45.67;;;7.60;85.40;;;;;;5087069;28;20036;-47
2020/12/21 00:29:14;;;;;;;80.28;45.35;;;7.60;85.40;;;;;;5094785;28;20058;-49
2020/12/21 00:31:40;;;;;;;76.97;43.97;;;7.50;85.50;;;;;;5094793;28;20024;-45
2020/12/21 00:34:07;;;;;;;68.90;42.38;;;7.60;85.20;;;;;;5109603;28;20111;-48
2020/12/21 00:36:50;;;;;;;73.20;43.00;;;7.50;85.30;;;;;;5094910;28;20111;-48
2020/12/21 00:39:16;;;;;;;63.03;39.63;;;7.50;86.00;;;;;;5094521;28;20024;-49
2020/12/21 00:41:45;;;;;;;64.25;39.80;;;7.50;85.90;;;;;;5094782;28;20019;-47
2020/12/21 00:44:11;;;;;;;64.90;38.38;;;7.60;85.30;;;;;;5094428;28;20035;-50
2020/12/21 00:46:38;;;;;;;63.42;38.83;;;7.20;85.90;;;;;;5094511;28;20107;-48
2020/12/21 00:49:04;;;;;;;67.63;40.75;;;7.20;86.60;;;;;;5094297;28;20086;-49
2020/12/21 00:51:30;;;;;;;64.43;39.00;;;7.00;87.00;;;;;;5094513;28;20024;-48
2020/12/21 00:53:56;;;;;;;70.50;42.53;;;6.90;88.50;;;;;;5093726;28;20422;-48
2020/12/21 00:56:23;;;;;;;73.40;42.10;;;7.00;87.70;;;;;;5094292;28;20051;-48
2020/12/21 00:58:49;;;;;;;72.40;40.58;;;7.10;87.70;;;;;;5094032;28;20511;-49
2020/12/21 01:01:17;;;;;;;75.75;43.85;;;7.20;87.10;;;;;;5108574;28;20040;-45
2020/12/21 01:03:43;;;;;;;72.22;42.65;;;7.10;87.50;;;;;;5109079;28;20039;-51
2020/12/21 01:06:08;;;;;;;77.00;41.60;;;7.20;87.10;;;;;;5094220;28;20028;-48
2020/12/21 01:08:35;;;;;;;72.40;41.55;;;7.30;86.80;;;;;;5108665;28;20032;-47
2020/12/21 01:11:01;;;;;;;66.25;39.67;;;7.40;86.10;;;;;;5094025;28;20028;-50
2020/12/21 01:13:27;;;;;;;65.93;37.97;;;7.50;85.90;;;;;;5094099;28;20020;-51
2020/12/21 01:15:52;;;;;;;68.32;40.30;;;7.60;85.50;;;;;;5093634;28;20059;-49
2020/12/21 01:18:19;;;;;;;69.97;40.33;;;7.60;85.60;;;;;;5093875;28;20101;-46
2020/12/21 01:20:45;;;;;;;66.55;39.75;;;7.60;85.60;;;;;;5094032;28;20039;-48
2020/12/21 01:23:10;;;;;;;64.13;39.55;;;7.50;85.60;;;;;;5093501;28;20028;-50
2020/12/21 01:25:37;;;;;;;62.17;37.05;;;7.60;85.60;;;;;;5093825;28;20024;-48
2020/12/21 01:28:04;;;;;;;63.30;37.58;;;7.70;85.00;;;;;;5093461;28;20052;-50
2020/12/21 01:30:29;;;;;;;53.92;33.35;;;7.60;85.10;;;;;;5093609;28;20043;-46
2020/12/21 01:32:55;;;;;;;58.17;34.83;;;7.20;86.30;;;;;;5091882;28;20483;-50
2020/12/21 01:35:21;;;;;;;53.65;33.60;;;7.30;86.80;;;;;;5093689;28;20024;-47
2020/12/21 01:37:47;;;;;;;49.28;32.47;;;7.30;86.50;;;;;;5108387;28;20025;-49
2020/12/21 01:40:12;;;;;;;48.58;30.90;;;7.10;88.20;;;;;;5108705;28;20085;-46
2020/12/21 01:42:38;;;;;;;48.60;29.92;;;7.10;87.70;;;;;;5093811;28;20028;-47
2020/12/21 01:45:08;;;;;;;43.28;28.42;;;7.20;87.30;;;;;;5093791;28;20032;-50
2020/12/21 01:47:37;;;;;;;47.58;28.25;;;7.30;86.70;;;;;;5093489;28;20039;-50
2020/12/21 01:50:05;;;;;;;46.40;28.90;;;7.40;86.70;;;;;;5093577;28;20028;-45
2020/12/21 01:52:31;;;;;;;45.35;29.95;;;7.50;86.20;;;;;;5093392;28;20093;-50
2020/12/21 01:54:57;;;;;;;42.65;29.40;;;7.50;86.30;;;;;;5108574;28;20496;-50
2020/12/21 01:57:22;;;;;;;43.67;28.85;;;7.60;85.70;;;;;;5093708;28;20050;-47
2020/12/21 01:59:48;;;;;;;50.25;31.17;;;7.70;85.10;;;;;;5093217;28;20076;-49
2020/12/21 02:02:14;;;;;;;43.38;28.40;;;7.70;85.00;;;;;;5091130;28;20388;-48
2020/12/21 02:04:39;;;;;;;52.10;31.40;;;7.70;84.80;;;;;;5093441;28;20138;-46
2020/12/21 02:07:06;;;;;;;45.72;29.92;;;7.70;84.70;;;;;;5096708;28;20051;-50
2020/12/21 02:09:33;;;;;;;47.97;32.00;;;7.70;85.00;;;;;;5060873;28;20036;-49
2020/12/21 02:11:59;;;;;;;49.55;31.83;;;7.60;85.00;;;;;;5095117;28;20034;-48
2020/12/21 02:14:26;;;;;;;56.53;34.38;;;7.20;86.60;;;;;;5095090;28;20036;-51
2020/12/21 02:16:52;;;;;;;60.88;36.97;;;7.30;86.60;;;;;;5094909;28;20032;-50
2020/12/21 02:19:18;;;;;;;63.05;36.83;;;7.50;86.30;;;;;;5094798;28;20383;-50
2020/12/21 02:21:46;;;;;;;58.25;37.13;;;7.50;86.30;;;;;;5061232;28;20040;-47
2020/12/21 02:24:11;;;;;;;59.78;37.30;;;7.60;86.00;;;;;;5094632;28;20036;-45
2020/12/21 02:26:37;;;;;;;52.28;33.03;;;7.60;85.70;;;;;;5094874;28;20387;-47
2020/12/21 02:29:03;;;;;;;49.50;32.75;;;7.70;85.30;;;;;;5094419;28;20054;-49
2020/12/21 02:31:29;;;;;;;55.67;36.22;;;7.60;85.90;;;;;;5094527;28;20028;-44
2020/12/21 02:33:54;;;;;;;50.15;33.83;;;7.70;84.80;;;;;;5094705;28;20031;-49
2020/12/21 02:36:20;;;;;;;50.55;33.65;;;7.80;84.30;;;;;;5061000;28;20115;-47
2020/12/21 02:38:46;;;;;;;52.22;32.80;;;7.70;84.50;;;;;;5094257;28;20166;-47
2020/12/21 02:41:16;;;;;;;57.45;36.20;;;7.70;84.70;;;;;;5096439;28;20097;-44
2020/12/21 02:43:44;;;;;;;55.38;34.22;;;7.60;85.10;;;;;;5096744;28;20048;-48
2020/12/21 02:46:11;;;;;;;62.08;39.45;;;7.60;85.40;;;;;;5096645;28;20385;-47
2020/12/21 02:48:37;;;;;;;61.58;38.03;;;7.50;85.40;;;;;;5096553;28;20058;-49
2020/12/21 02:51:03;;;;;;;65.80;40.13;;;7.50;85.40;;;;;;5096831;28;20437;-49
2020/12/21 02:53:29;;;;;;;59.80;37.85;;;7.60;85.30;;;;;;5096518;28;20084;-50
2020/12/21 02:55:55;;;;;;;58.13;37.47;;;7.60;84.70;;;;;;5096817;28;20103;-47
2020/12/21 02:58:21;;;;;;;60.63;38.63;;;7.70;84.20;;;;;;5096476;28;20027;-46
2020/12/21 03:00:47;;;;;;;65.93;39.72;;;7.80;83.90;;;;;;5096510;28;20024;-47
2020/12/21 03:03:13;;;;;;;66.93;41.45;;;7.70;83.90;;;;;;5096642;28;20020;-51
2020/12/21 03:05:39;;;;;;;71.47;42.70;;;7.50;84.70;;;;;;5096484;28;20496;-48
2020/12/21 03:08:06;;;;;;;70.05;44.03;;;7.60;84.50;;;;;;5096132;28;20028;-48
2020/12/21 03:10:33;;;;;;;66.85;42.10;;;7.60;84.40;;;;;;5096322;28;20062;-50
2020/12/21 03:12:59;;;;;;;70.55;42.05;;;7.60;84.40;;;;;;5096375;28;20031;-48
2020/12/21 03:15:25;;;;;;;75.35;45.22;;;7.60;84.20;;;;;;5096277;28;20028;-46
2020/12/21 03:17:51;;;;;;;71.38;42.05;;;7.60;84.10;;;;;;5095688;28;20055;-47
2020/12/21 03:20:17;;;;;;;76.45;44.67;;;7.60;84.50;;;;;;5096103;28;20055;-47
2020/12/21 03:22:43;;;;;;;73.97;46.42;;;7.40;85.20;;;;;;5095948;28;20035;-47
2020/12/21 03:25:09;;;;;;;74.47;43.47;;;7.40;85.30;;;;;;5096196;28;20028;-46
2020/12/21 03:27:35;;;;;;;75.97;44.47;;;7.50;85.10;;;;;;5095905;28;20475;-47
2020/12/21 03:30:03;;;;;;;80.55;45.65;;;7.50;85.40;;;;;;5095772;28;20487;-50
2020/12/21 03:32:29;;;;;;;74.90;45.28;;;7.40;85.30;;;;;;5096047;28;20383;-46
2020/12/21 03:34:55;;;;;;;74.10;44.05;;;7.40;85.90;;;;;;5096144;28;20049;-46
2020/12/21 03:37:21;;;;;;;75.35;44.95;;;7.50;84.90;;;;;;5093583;28;20115;-49
2020/12/21 03:39:47;;;;;;;73.18;44.88;;;7.50;84.70;;;;;;5096082;28;20073;-47
2020/12/21 03:42:13;;;;;;;76.63;44.75;;;7.50;85.10;;;;;;5095854;28;20028;-45
2020/12/21 03:44:39;;;;;;;74.93;44.47;;;7.40;85.40;;;;;;5095345;28;20024;-45
2020/12/21 03:47:04;;;;;;;76.78;46.70;;;7.30;85.70;;;;;;5095795;28;20020;-47
2020/12/21 03:49:30;;;;;;;70.57;44.05;;;7.10;86.80;;;;;;5095581;28;20047;-48
2020/12/21 03:51:56;;;;;;;76.82;44.72;;;7.20;86.50;;;;;;5095270;28;20024;-44
2020/12/21 03:54:22;;;;;;;72.90;45.40;;;7.30;86.20;;;;;;5060021;28;20071;-50
2020/12/21 03:56:48;;;;;;;69.88;42.50;;;7.40;85.80;;;;;;5095538;28;20020;-45
2020/12/21 03:59:14;;;;;;;73.40;44.33;;;7.60;85.10;;;;;;5095326;28;20128;-47
2020/12/21 04:01:40;;;;;;;77.60;44.83;;;7.60;84.90;;;;;;5059658;28;20113;-49
2020/12/21 04:04:06;;;;;;;80.40;44.88;;;7.50;85.20;;;;;;5095367;28;20047;-46
2020/12/21 04:06:33;;;;;;;69.68;43.42;;;7.50;85.00;;;;;;5095110;28;20032;-45
2020/12/21 04:08:58;;;;;;;75.20;43.42;;;7.50;85.20;;;;;;5095096;28;20042;-47
2020/12/21 04:11:24;;;;;;;70.90;43.75;;;7.40;85.40;;;;;;5093202;28;20032;-49
2020/12/21 04:13:50;;;;;;;71.38;44.90;;;7.40;85.40;;;;;;5094890;28;20032;-46
2020/12/21 04:16:15;;;;;;;84.53;51.03;;;7.40;85.30;;;;;;5093208;28;20040;-49
2020/12/21 04:18:41;;;;;;;78.68;47.88;;;7.40;85.30;;;;;;5095025;28;20031;-47
2020/12/21 04:21:11;;;;;;;95.70;57.63;;;7.50;85.50;;;;;;5094791;28;20038;-47
2020/12/21 04:23:38;;;;;;;94.35;53.15;;;7.50;85.40;;;;;;5095082;28;20032;-46
2020/12/21 04:26:05;;;;;;;85.07;51.38;;;7.40;85.50;;;;;;5094999;28;20046;-47
2020/12/21 04:28:31;;;;;;;113.43;64.53;;;7.50;85.20;;;;;;5093203;28;20059;-45
2020/12/21 04:31:00;;;;;;;111.90;67.85;;;7.50;84.90;;;;;;5093884;28;20020;-48
2020/12/21 04:33:26;;;;;;;112.95;63.60;;;7.30;85.00;;;;;;5094083;28;20480;-48
2020/12/21 04:35:52;;;;;;;95.72;56.72;;;7.00;86.70;;;;;;5093781;28;20024;-45
2020/12/21 04:38:18;;;;;;;87.20;52.95;;;6.90;87.30;;;;;;5093624;28;20033;-47
2020/12/21 04:40:50;;;;;;;97.82;56.85;;;7.10;86.80;;;;;;5093978;28;20016;-45
2020/12/21 04:43:16;;;;;;;88.15;53.70;;;7.20;86.70;;;;;;5093686;28;20094;-49
2020/12/21 04:45:43;;;;;;;87.10;52.85;;;7.30;86.10;;;;;;5093832;28;20032;-46
2020/12/21 04:48:14;;;;;;;89.80;52.90;;;7.30;85.90;;;;;;5093806;28;20028;-47
2020/12/21 04:50:41;;;;;;;75.70;48.33;;;7.30;86.20;;;;;;5093491;28;20368;-46
2020/12/21 04:53:08;;;;;;;72.20;44.42;;;7.10;86.00;;;;;;5108660;28;20485;-50
2020/12/21 04:55:34;;;;;;;74.32;44.45;;;7.30;86.20;;;;;;5094002;28;20020;-49
2020/12/21 04:58:02;;;;;;;68.18;41.25;;;7.40;85.50;;;;;;5093258;28;20028;-49
2020/12/21 05:00:30;;;;;;;64.53;40.08;;;7.40;85.40;;;;;;5093729;28;20043;-44
2020/12/21 05:02:56;;;;;;;68.55;42.63;;;7.30;85.80;;;;;;5093557;28;20042;-46
2020/12/21 05:05:42;;;;;;;68.72;43.95;;;7.00;86.50;;;;;;5093357;28;20020;-47
2020/12/21 05:08:21;;;;;;;62.65;40.22;;;7.10;86.60;;;;;;5093257;28;20418;-48
2020/12/21 05:11:05;;;;;;;58.55;37.50;;;7.20;86.40;;;;;;5093482;28;20116;-49
2020/12/21 05:13:32;;;;;;;55.05;37.13;;;7.30;85.60;;;;;;5108082;28;20036;-48
2020/12/21 05:15:59;;;;;;;60.63;37.22;;;7.40;85.50;;;;;;5108551;28;20182;-45
2020/12/21 05:18:30;;;;;;;65.97;38.22;;;7.40;85.10;;;;;;5093162;28;20102;-50
2020/12/21 05:20:57;;;;;;;61.08;37.95;;;7.20;85.40;;;;;;5093144;28;20039;-45
2020/12/21 05:23:22;;;;;;;52.92;35.30;;;7.10;86.00;;;;;;5092921;28;20030;-46
2020/12/21 05:26:07;;;;;;;53.72;34.95;;;7.10;86.60;;;;;;5093382;28;20363;-46
2020/12/21 05:28:42;;;;;;;57.40;36.38;;;7.20;86.00;;;;;;5053181;28;707049;-46
2020/12/21 05:31:10;;;;;;;59.63;39.03;;;7.30;85.30;;;;;;5076039;28;20076;-47
2020/12/21 05:33:46;;;;;;;65.88;41.95;;;7.40;85.20;;;;;;5094020;28;20032;-50
2020/12/21 05:36:16;;;;;;;54.45;32.97;;;7.50;84.90;;;;;;5108414;28;20036;-49
2020/12/21 05:38:44;;;;;;;55.28;34.40;;;7.50;84.00;;;;;;5093628;28;20032;-49
2020/12/21 05:41:16;;;;;;;81.93;46.08;;;7.50;85.30;;;;;;5093394;28;20039;-49
2020/12/21 05:43:43;;;;;;;62.45;36.25;;;7.40;84.40;;;;;;5093301;28;20031;-48
2020/12/21 05:46:19;;;;;;;67.97;40.63;;;7.40;84.70;;;;;;5093555;28;20032;-46
2020/12/21 05:48:49;;;;;;;59.55;37.08;;;7.20;84.80;;;;;;5093558;28;20068;-48
2020/12/21 05:51:24;;;;;;;54.45;33.88;;;7.30;85.60;;;;;;5108314;28;20530;-47
2020/12/21 05:53:52;;;;;;;41.72;24.98;;;7.40;85.50;;;;;;5093572;28;20035;-49
2020/12/21 05:56:20;;;;;;;35.47;23.38;;;7.50;84.70;;;;;;5093536;28;20060;-48
2020/12/21 05:58:46;;;;;;;34.03;21.73;;;7.30;84.20;;;;;;5093388;28;20059;-48
2020/12/21 06:01:13;;;;;;;30.45;20.23;;;7.30;84.70;;;;;;5108589;28;20464;-47
2020/12/21 06:03:40;;;;;;;32.33;20.35;;;7.40;84.70;;;;;;5086583;28;20106;-47
2020/12/21 06:06:17;;;;;;;41.03;26.95;;;7.30;85.30;;;;;;5086384;28;20028;-45
2020/12/21 06:08:44;;;;;;;47.00;32.92;;;7.20;85.40;;;;;;5078854;28;20045;-47
2020/12/21 06:11:12;;;;;;;44.67;30.90;;;7.30;85.50;;;;;;5073151;28;20029;-47
2020/12/21 06:13:43;;;;;;;38.28;25.98;;;7.40;84.60;;;;;;5071600;28;20384;-50
2020/12/21 06:16:10;;;;;;;46.30;30.73;;;7.50;84.10;;;;;;5087933;28;20112;-47
2020/12/21 06:18:36;;;;;;;35.72;25.13;;;7.50;84.40;;;;;;5092739;28;20031;-50
2020/12/21 06:21:02;;;;;;;31.55;20.90;;;7.50;84.10;;;;;;5099797;28;20041;-46
2020/12/21 06:23:38;;;;;;;27.77;18.73;;;7.60;83.80;;;;;;5075889;28;20086;-50
2020/12/21 06:26:14;;;;;;;33.20;20.98;;;7.50;83.20;;;;;;5093165;28;20028;-50
2020/12/21 06:28:40;;;;;;;27.05;19.67;;;7.40;84.00;;;;;;5092531;28;20403;-49
2020/12/21 06:31:12;;;;;;;31.65;19.80;;;7.20;85.10;;;;;;5087889;28;20051;-46
2020/12/21 06:33:39;;;;;;;28.42;18.90;;;7.40;85.20;;;;;;5072938;28;20029;-47
2020/12/21 06:36:05;;;;;;;31.10;19.60;;;7.40;84.50;;;;;;5072791;28;20032;-45
2020/12/21 06:38:49;;;;;;;27.27;18.63;;;7.40;84.40;;;;;;5088845;28;20032;-45
2020/12/21 06:41:26;;;;;;;27.60;18.73;;;7.50;84.40;;;;;;5092846;28;20123;-50
2020/12/21 06:43:59;;;;;;;31.75;22.70;;;7.60;84.00;;;;;;5092762;28;20032;-48
2020/12/21 06:46:26;;;;;;;32.22;21.35;;;7.70;83.80;;;;;;5105049;28;20467;-53
2020/12/21 06:49:02;;;;;;;27.75;20.48;;;7.80;84.20;;;;;;5091982;28;20036;-48
2020/12/21 06:51:28;;;;;;;30.08;19.77;;;7.80;83.70;;;;;;5093054;28;20050;-50
2020/12/21 06:54:01;;;;;;;30.30;20.95;;;7.90;82.70;;;;;;5111746;28;20047;-51
2020/12/21 06:56:28;;;;;;;39.28;23.90;;;7.90;82.90;;;;;;5096775;28;20032;-45
2020/12/21 06:58:55;;;;;;;35.00;24.80;;;7.90;83.20;;;;;;5096721;28;20038;-52
2020/12/21 07:01:25;;;;;;;33.95;26.35;;;8.00;83.10;;;;;;5096605;28;20051;-52
2020/12/21 07:03:52;;;;;;;36.78;25.63;;;7.70;82.90;;;;;;5096319;28;20384;-49
2020/12/21 07:06:18;;;;;;;33.28;22.60;;;7.60;84.50;;;;;;5111640;28;20036;-51
2020/12/21 07:08:45;;;;;;;35.97;23.08;;;7.60;84.40;;;;;;5096180;28;20070;-49
2020/12/21 07:11:16;;;;;;;53.40;34.90;;;7.70;84.40;;;;;;5114257;28;20047;-49
2020/12/21 07:13:42;;;;;;;51.80;33.47;;;7.90;84.60;;;;;;5080504;28;20094;-50
2020/12/21 07:16:09;;;;;;;40.05;28.23;;;7.90;83.50;;;;;;5114552;28;20043;-51
2020/12/21 07:18:35;;;;;;;43.95;31.70;;;8.00;83.10;;;;;;5114079;28;20107;-54
2020/12/21 07:21:04;;;;;;;34.92;25.33;;;8.00;83.60;;;;;;5113440;28;20512;-49
2020/12/21 07:23:30;;;;;;;35.08;25.50;;;7.80;83.50;;;;;;5114114;28;20028;-50
2020/12/21 07:25:56;;;;;;;35.53;24.15;;;8.00;83.90;;;;;;5113793;28;20051;-52
2020/12/21 07:28:25;;;;;;;42.53;29.73;;;8.10;84.10;;;;;;4964946;28;20085;-47
2020/12/21 07:30:51;;;;;;;39.20;27.27;;;8.20;83.30;;;;;;5114143;28;20039;-49
2020/12/21 07:33:18;;;;;;;34.05;25.52;;;8.20;83.70;;;;;;5113877;28;20039;-48
2020/12/21 07:35:54;;;;;;;34.72;23.30;;;8.30;83.50;;;;;;5079241;28;20040;-51
2020/12/21 07:38:22;;;;;;;41.38;25.45;;;8.20;83.00;;;;;;5113840;28;20027;-49
2020/12/21 07:40:49;;;;;;;40.53;26.65;;;8.30;82.80;;;;;;5079661;28;20040;-48
2020/12/21 07:43:29;;;;;;;38.58;27.73;;;8.20;83.20;;;;;;5056714;28;20563;-48
2020/12/21 07:46:01;;;;;;;42.72;26.42;;;8.30;83.80;;;;;;5095496;28;20032;-47
2020/12/21 07:48:27;;;;;;;37.47;25.08;;;8.40;83.30;;;;;;5095577;28;20418;-46
2020/12/21 07:50:53;;;;;;;38.70;26.90;;;8.40;83.40;;;;;;5095550;28;20032;-47
2020/12/21 07:53:20;;;;;;;36.00;22.75;;;8.70;82.60;;;;;;5093396;28;20039;-52
2020/12/21 07:55:57;;;;;;;40.13;26.63;;;8.20;81.60;;;;;;5095270;28;20032;-50
2020/12/21 07:58:23;;;;;;;37.13;24.67;;;8.40;82.40;;;;;;5095425;28;20496;-48
2020/12/21 08:00:57;;;;;;;36.67;25.50;;;8.60;81.50;;;;;;5095280;28;20066;-47
2020/12/21 08:03:25;;;;;;;35.28;22.35;;;8.70;81.30;;;;;;5092106;28;20036;-53
2020/12/21 08:06:02;;;;;;;35.42;22.77;;;8.70;81.20;;;;;;5095477;28;20036;-44
2020/12/21 08:08:34;;;;;;;34.38;21.75;;;8.60;80.20;;;;;;5092797;28;20032;-49
2020/12/21 08:11:00;;;;;;;;;;;8.50;80.80;;;;;;5087791;28;20447;-48
2020/12/21 08:13:26;;;;;;;33.13;20.45;;;8.50;80.80;;;;;;5090597;28;19907;-51
2020/12/21 08:16:03;;;;;;;28.65;19.75;;;8.30;81.80;;;;;;5089268;28;20388;-52
2020/12/21 08:18:28;;;;;;;30.00;19.27;;;8.60;81.80;;;;;;5078393;28;20039;-51
2020/12/21 08:20:54;;;;;;;28.02;19.42;;;8.10;81.40;;;;;;5084520;28;20040;-47
2020/12/21 08:23:28;;;;;;;26.67;18.77;;;8.20;82.40;;;;;;5094923;28;20032;-55
2020/12/21 08:25:54;;;;;;;32.55;20.33;;;8.20;82.10;;;;;;5109600;28;20032;-46
2020/12/21 08:28:30;;;;;;;31.27;21.30;;;8.40;82.00;;;;;;5109636;28;20131;-49
2020/12/21 08:31:06;;;;;;;32.70;21.20;;;8.60;81.80;;;;;;5094940;28;20031;-45
2020/12/21 08:33:32;;;;;;;30.98;20.17;;;8.70;79.90;;;;;;5094476;28;20036;-51
2020/12/21 08:36:17;;;;;;;29.38;20.77;;;8.80;80.90;;;;;;5109740;28;20120;-45
2020/12/21 08:38:44;;;;;;;32.00;20.13;;;8.90;80.50;;;;;;5094540;28;20039;-51
2020/12/21 08:41:10;;;;;;;27.40;17.80;;;8.70;79.60;;;;;;5094360;28;20464;-49
2020/12/21 08:43:36;;;;;;;28.40;17.23;;;8.90;80.10;;;;;;5092578;28;20036;-49
2020/12/21 08:46:06;;;;;;;33.10;20.00;;;8.90;80.20;;;;;;5094412;28;20107;-50
2020/12/21 08:48:32;;;;;;;28.92;18.42;;;9.10;80.20;;;;;;5093175;28;20497;-47
2020/12/21 08:50:57;;;;;;;27.15;18.90;;;9.50;93.40;;;;;;5094494;28;20107;-53
2020/12/21 08:53:23;;;;;;;30.70;19.70;;;9.30;92.50;;;;;;5094236;28;20036;-51
2020/12/21 08:55:49;;;;;;;29.45;19.83;;;9.30;93.10;;;;;;5094101;28;20032;-47
2020/12/21 08:58:14;;;;;;;31.30;20.50;;;8.70;79.30;;;;;;5093762;28;20051;-50
2020/12/21 09:00:40;;;;;;;27.98;19.85;;;9.00;79.60;;;;;;5092700;28;20780;-52
2020/12/21 09:03:06;;;;;;;31.80;19.83;;;;;;;;;;5092624;28;20035;-51
2020/12/21 09:05:35;;;;;;;30.35;21.33;;;9.60;79.40;;;;;;5107493;28;20090;-45
2020/12/21 09:08:01;;;;;;;34.22;21.65;;;9.70;77.50;;;;;;5089524;28;20131;-52
2020/12/21 09:10:27;;;;;;;34.35;24.65;;;9.40;77.80;;;;;;5084006;28;20115;-50
2020/12/21 09:12:52;;;;;;;29.45;19.83;;;9.80;77.50;;;;;;5085541;28;20028;-50
2020/12/21 09:15:18;;;;;;;27.38;20.25;;;9.80;76.20;;;;;;5092004;28;20036;-44
2020/12/21 09:17:44;;;;;;;26.98;19.02;;;10.00;76.70;;;;;;5090534;28;20130;-46
2020/12/21 09:20:10;;;;;;;29.58;19.85;;;10.10;76.50;;;;;;5092727;28;20043;-47
2020/12/21 09:22:36;;;;;;;27.65;19.95;;;10.20;77.00;;;;;;5092787;28;20414;-48
2020/12/21 09:25:02;;;;;;;30.42;21.08;;;10.30;74.90;;;;;;5092492;28;20032;-46
2020/12/21 09:27:27;;;;;;;31.65;20.85;;;10.50;74.30;;;;;;5107495;28;20032;-50
2020/12/21 09:29:53;;;;;;;30.58;19.42;;;10.60;74.20;;;;;;5092407;28;20433;-54
2020/12/21 09:32:19;;;;;;;33.72;21.50;;;10.50;73.80;;;;;;5092507;28;20028;-49
2020/12/21 09:34:45;;;;;;;32.42;21.33;;;10.40;74.20;;;;;;5092639;28;20118;-45
2020/12/21 09:37:13;;;;;;;30.13;17.92;;;10.40;74.60;;;;;;5092515;28;20036;-46
2020/12/21 09:39:39;;;;;;;30.80;19.80;;;10.40;74.10;;;;;;5091803;28;20020;-48
2020/12/21 09:42:05;;;;;;;27.58;19.25;;;10.60;74.80;;;;;;5092450;28;20110;-49
2020/12/21 09:44:31;;;;;;;27.90;19.27;;;10.50;73.80;;;;;;5091948;28;20376;-56
2020/12/21 09:46:56;;;;;;;30.45;21.00;;;10.10;74.30;;;;;;5091570;28;20464;-49
2020/12/21 09:49:22;;;;;;;32.28;21.85;;;10.20;74.20;;;;;;5092417;28;20365;-47
2020/12/21 09:51:52;;;;;;;34.22;23.67;;;10.40;75.40;;;;;;5092317;28;20356;-49
2020/12/21 09:54:18;;;;;;;29.92;21.50;;;10.70;80.90;;;;;;5092209;28;20597;-50
2020/12/21 09:56:48;;;;;;;34.88;22.63;;;10.40;72.70;;;;;;5092082;28;20115;-48
2020/12/21 09:59:13;;;;;;;36.05;25.00;;;10.20;74.20;;;;;;5079801;28;20495;-51
2020/12/21 10:01:39;;;;;;;39.42;23.27;;;10.30;74.70;;;;;;5069753;28;20049;-52
2020/12/21 10:04:05;;;;;;;29.52;20.30;;;10.40;74.60;;;;;;5071881;28;20060;-49
2020/12/21 10:06:31;;;;;;;34.75;22.85;;;9.80;74.60;;;;;;5071861;28;20464;-49
2020/12/21 10:08:56;;;;;;;34.45;23.65;;;9.90;75.70;;;;;;5086486;28;20052;-51
2020/12/21 10:11:22;;;;;;;38.08;22.50;;;10.30;76.90;;;;;;5071924;28;20037;-52
2020/12/21 10:13:48;;;;;;;35.08;23.45;;;10.60;74.40;;;;;;5080372;28;20020;-51
2020/12/21 10:16:14;;;;;;;34.92;23.98;;;10.50;73.50;;;;;;5088141;28;20020;-49
2020/12/21 10:18:40;;;;;;;42.45;27.60;;;10.80;74.10;;;;;;5082745;28;20040;-46
2020/12/21 10:21:07;;;;;;;48.25;31.02;;;10.90;72.40;;;;;;5075409;28;20483;-47
2020/12/21 10:23:33;;;;;;;39.75;26.50;;;10.90;71.30;;;;;;5091890;28;20506;-52
2020/12/21 10:26:03;;;;;;;35.13;26.25;;;11.00;72.30;;;;;;5088964;28;20460;-48
2020/12/21 10:28:29;;;;;;;37.83;24.85;;;11.10;73.40;;;;;;5094000;28;20044;-46
2020/12/21 10:30:54;;;;;;;33.95;23.33;;;11.20;72.30;;;;;;5090544;28;20041;-50
2020/12/21 10:33:20;;;;;;;34.53;22.92;;;11.60;71.60;;;;;;5092980;28;20916;-50
2020/12/21 10:35:46;;;;;;;34.85;22.90;;;11.50;70.00;;;;;;5081311;28;20024;-53
2020/12/21 10:38:12;;;;;;;32.17;21.75;;;11.40;70.20;;;;;;5082343;28;20035;-49
2020/12/21 10:40:38;;;;;;;35.88;24.52;;;11.30;70.10;;;;;;5088175;28;20032;-49
2020/12/21 10:43:03;;;;;;;39.63;26.90;;;11.30;70.50;;;;;;5089578;28;20035;-49
2020/12/21 10:45:29;;;;;;;48.50;34.65;;;10.80;71.20;;;;;;5022711;28;20063;-48
2020/12/21 10:47:55;;;;;;;47.03;35.30;;;10.60;72.60;;;;;;5040625;28;20170;-52
2020/12/21 10:50:21;;;;;;;38.45;25.17;;;10.80;73.50;;;;;;5072785;28;20075;-52
2020/12/21 10:52:47;;;;;;;37.63;23.02;;;10.50;73.10;;;;;;5005893;28;20127;-47
2020/12/21 10:55:12;;;;;;;38.78;24.25;;;10.50;73.50;;;;;;5072523;28;20504;-51
2020/12/21 10:57:39;;;;;;;41.78;26.65;;;10.90;74.60;;;;;;5039072;28;20040;-45
2020/12/21 11:00:05;;;;;;;42.28;24.70;;;11.10;73.30;;;;;;5072568;28;20078;-51
2020/12/21 11:02:31;;;;;;;50.58;32.83;;;11.20;72.00;;;;;;5072501;28;20029;-51
2020/12/21 11:04:57;;;;;;;40.80;28.23;;;11.30;72.30;;;;;;5039057;28;20036;-50
2020/12/21 11:07:23;;;;;;;37.33;25.65;;;11.30;71.10;;;;;;5072645;28;20028;-53
2020/12/21 11:09:48;;;;;;;42.83;26.52;;;11.20;71.50;;;;;;5071937;28;20033;-49
2020/12/21 11:12:14;;;;;;;63.00;41.75;;;11.30;71.10;;;;;;5072411;28;20511;-48
2020/12/21 11:14:40;;;;;;;44.42;31.90;;;11.50;70.50;;;;;;5072251;28;20455;-50
2020/12/21 11:17:05;;;;;;;58.97;38.33;;;11.50;70.70;;;;;;5073942;28;20040;-51
2020/12/21 11:19:31;;;;;;;43.30;26.27;;;11.50;71.40;;;;;;5074586;28;20040;-51
2020/12/21 11:21:57;;;;;;;38.15;26.63;;;11.70;70.60;;;;;;5092516;28;20035;-49
2020/12/21 11:24:23;;;;;;;36.58;24.40;;;11.50;71.10;;;;;;5094612;28;20057;-48
2020/12/21 11:26:52;;;;;;;37.50;23.60;;;11.60;70.60;;;;;;5092414;28;20048;-47
2020/12/21 11:29:18;;;;;;;48.70;30.05;;;11.80;69.70;;;;;;5094751;28;20607;-49
2020/12/21 11:31:43;;;;;;;36.90;23.42;;;11.90;70.20;;;;;;5094741;28;20067;-50
2020/12/21 11:34:09;;;;;;;35.80;25.20;;;11.80;69.10;;;;;;5094327;28;20032;-50
2020/12/21 11:36:35;;;;;;;38.30;25.08;;;11.70;69.80;;;;;;5094360;28;20036;-48
2020/12/21 11:39:00;;;;;;;37.42;24.30;;;11.90;69.10;;;;;;5091918;28;20047;-48
2020/12/21 11:41:30;;;;;;;37.10;25.83;;;11.80;68.90;;;;;;5093196;28;20031;-54
2020/12/21 11:43:56;;;;;;;41.20;26.92;;;11.50;70.00;;;;;;5093955;28;20035;-50
2020/12/21 11:46:32;;;;;;;41.33;27.50;;;11.50;70.70;;;;;;5109003;28;20083;-51
2020/12/21 11:48:58;;;;;;;40.95;28.40;;;11.70;70.00;;;;;;5094179;28;20484;-46
2020/12/21 11:51:25;;;;;;;41.70;29.02;;;11.70;69.70;;;;;;5094139;28;20070;-47
2020/12/21 11:53:51;;;;;;;41.63;28.08;;;11.60;70.50;;;;;;5093929;28;20028;-49
2020/12/21 11:56:18;;;;;;;44.75;31.20;;;11.60;71.10;;;;;;5094401;28;20528;-49
2020/12/21 11:58:44;;;;;;;50.15;29.48;;;11.50;70.30;;;;;;5094134;28;20036;-52
2020/12/21 12:01:10;;;;;;;46.95;29.92;;;11.20;72.00;;;;;;5093766;28;20040;-51
2020/12/21 12:03:36;;;;;;;48.10;29.63;;;11.00;72.20;;;;;;5094167;28;20036;-52
2020/12/21 12:06:02;;;;;;;47.38;29.58;;;11.00;73.00;;;;;;5094027;28;20028;-47
2020/12/21 12:08:27;;;;;;;44.08;30.08;;;10.80;72.60;;;;;;5093724;28;20600;-49
2020/12/21 12:10:53;;;;;;;48.15;29.00;;;10.90;73.50;;;;;;5094043;28;20040;-48
2020/12/21 12:13:19;;;;;;;46.33;29.50;;;11.20;73.20;;;;;;5093601;28;20035;-49
2020/12/21 12:15:45;;;;;;;49.50;31.05;;;11.40;71.50;;;;;;5093789;28;20043;-48
2020/12/21 12:18:10;;;;;;;44.88;30.33;;;11.50;70.90;;;;;;5093749;28;20410;-50
2020/12/21 12:20:36;;;;;;;48.80;33.22;;;11.70;70.50;;;;;;5093748;28;20392;-47
2020/12/21 12:23:02;;;;;;;52.83;34.17;;;11.80;69.30;;;;;;5093292;28;20036;-46
2020/12/21 12:25:28;;;;;;;53.53;33.30;;;11.60;70.00;;;;;;5093693;28;20060;-48
2020/12/21 12:27:54;;;;;;;48.90;34.08;;;11.60;70.30;;;;;;5093345;28;20479;-49
2020/12/21 12:30:19;;;;;;;56.22;36.17;;;11.40;70.80;;;;;;5093104;28;20464;-49
2020/12/21 12:32:45;;;;;;;47.38;32.40;;;11.20;71.80;;;;;;5093218;28;20383;-48
2020/12/21 12:35:11;;;;;;;42.33;28.60;;;11.40;72.00;;;;;;5093447;28;20540;-47
2020/12/21 12:37:36;;;;;;;53.03;34.88;;;11.60;71.40;;;;;;5093486;28;20050;-51